Ubet, Wisconsin
Current Conditions -  °F | °C
As of 4:15 PM on Sunday 25 Jan 2015 (Local Time) from KOEO Reporting Station
Clear Clear  
Wind Chill: 19°   Ceiling: Unl
Heat Index: 26°   Visibility: 10mi
Dew Point: 13°   Wind: 6mph
Humidity: 57%   Direction: 120°ESE
Pressure: 30.06"   Gusts: NA
Location:  45.3599°N, 92.5447°W
Report Text: KOEO 252215Z AUTO 12005KT 10SM CLR M03/M11 A3006 RMK AO2 T10341108
Loading
Personal Weather Stations






























Interactive Weather Map New forecast layout! Learn more

10-Day Weather Forecast

Advertisements
Track Severe Weather on mobile